createdAt,value
2016-12-12T00:00:20.039Z,0
2016-12-12T00:00:52.359Z,0
2016-12-12T00:01:24.685Z,0
2016-12-12T00:01:57.007Z,0
2016-12-12T00:02:29.331Z,0
2016-12-12T00:03:01.681Z,0
2016-12-12T00:03:33.997Z,0
2016-12-12T00:04:06.340Z,0
2016-12-12T00:04:38.666Z,0
2016-12-12T00:05:11.012Z,0
2016-12-12T00:05:43.327Z,0
2016-12-12T00:06:15.655Z,0
2016-12-12T00:06:47.964Z,0
2016-12-12T00:07:20.294Z,0
2016-12-12T00:07:52.612Z,0
2016-12-12T00:08:24.937Z,0
2016-12-12T00:08:57.271Z,0
2016-12-12T00:09:29.585Z,0
2016-12-12T00:10:01.922Z,0
2016-12-12T00:10:34.250Z,0
2016-12-12T00:11:06.571Z,0
2016-12-12T00:11:38.886Z,0
2016-12-12T00:12:11.208Z,0
2016-12-12T00:12:43.528Z,0
2016-12-12T00:13:15.847Z,0
2016-12-12T00:13:48.168Z,0
2016-12-12T00:14:20.482Z,0
2016-12-12T00:14:52.805Z,0
2016-12-12T00:15:25.126Z,0
2016-12-12T00:15:57.455Z,0
2016-12-12T00:16:29.776Z,0
2016-12-12T00:17:02.118Z,0
2016-12-12T00:17:34.434Z,0
2016-12-12T00:18:06.782Z,0
2016-12-12T00:18:39.104Z,0
2016-12-12T00:19:11.417Z,0
2016-12-12T00:19:43.736Z,0
2016-12-12T00:20:16.052Z,0
2016-12-12T00:20:48.380Z,0
2016-12-12T00:21:20.701Z,0
2016-12-12T00:21:53.022Z,0
2016-12-12T00:22:25.331Z,0
2016-12-12T00:22:57.642Z,0
2016-12-12T00:23:29.951Z,0
2016-12-12T00:24:02.257Z,0
2016-12-12T00:24:34.554Z,0
2016-12-12T00:25:06.872Z,0
2016-12-12T00:25:39.185Z,0
2016-12-12T00:26:11.502Z,0
2016-12-12T00:26:43.829Z,0
2016-12-12T00:27:16.149Z,0
2016-12-12T00:27:48.474Z,0
2016-12-12T00:28:20.801Z,0
2016-12-12T00:28:53.115Z,0
2016-12-12T00:29:25.436Z,0
2016-12-12T00:29:57.749Z,0
2016-12-12T00:30:30.102Z,0
2016-12-12T00:31:02.417Z,0
2016-12-12T00:31:34.732Z,0
2016-12-12T00:32:07.055Z,0
2016-12-12T00:32:39.381Z,0
2016-12-12T00:33:11.690Z,0
2016-12-12T00:33:44.034Z,0
2016-12-12T00:34:16.360Z,0
2016-12-12T00:34:48.693Z,0
2016-12-12T00:35:21.026Z,0
2016-12-12T00:35:53.336Z,0
2016-12-12T00:36:25.666Z,0
2016-12-12T00:36:57.996Z,0
2016-12-12T00:37:30.330Z,0
2016-12-12T00:38:02.642Z,0
2016-12-12T00:38:34.969Z,0
2016-12-12T00:39:07.303Z,0
2016-12-12T00:39:39.617Z,0
2016-12-12T00:40:11.942Z,0
2016-12-12T00:40:44.253Z,0
2016-12-12T00:41:16.568Z,0
2016-12-12T00:41:48.893Z,0
2016-12-12T00:42:21.220Z,0
2016-12-12T00:42:53.542Z,0
2016-12-12T00:43:25.870Z,0
2016-12-12T00:43:58.192Z,0
2016-12-12T00:44:30.516Z,0
2016-12-12T00:45:02.848Z,0
2016-12-12T00:45:35.173Z,0
2016-12-12T00:46:07.476Z,0
2016-12-12T00:46:39.789Z,0
2016-12-12T00:47:12.094Z,0
2016-12-12T00:47:44.420Z,0
2016-12-12T00:48:16.742Z,0
2016-12-12T00:48:49.061Z,0
2016-12-12T00:49:21.384Z,0
2016-12-12T00:49:53.703Z,0
2016-12-12T00:50:26.008Z,0
2016-12-12T00:50:58.341Z,0
2016-12-12T00:51:30.655Z,0
2016-12-12T00:52:02.971Z,0
2016-12-12T00:52:35.290Z,0
2016-12-12T00:53:07.598Z,0
2016-12-12T00:53:39.885Z,0
2016-12-12T00:54:12.240Z,0
2016-12-12T00:54:44.543Z,0
2016-12-12T00:55:16.869Z,0
2016-12-12T00:55:49.192Z,0
2016-12-12T00:56:21.510Z,0
2016-12-12T00:56:53.842Z,0
2016-12-12T00:57:26.166Z,0
2016-12-12T00:57:58.491Z,0
2016-12-12T00:58:30.806Z,0
2016-12-12T00:59:03.125Z,0
2016-12-12T00:59:35.448Z,0
2016-12-12T01:00:07.764Z,0
2016-12-12T01:00:40.089Z,0
2016-12-12T01:01:12.413Z,0
2016-12-12T01:01:44.736Z,0
2016-12-12T01:02:17.069Z,0
2016-12-12T01:02:49.390Z,0
2016-12-12T01:03:21.716Z,0
2016-12-12T01:03:54.039Z,0
2016-12-12T01:04:26.344Z,0
2016-12-12T01:04:58.673Z,0
2016-12-12T01:05:30.995Z,0
2016-12-12T01:06:04.086Z,0
2016-12-12T01:06:36.411Z,0
2016-12-12T01:07:08.718Z,0
2016-12-12T01:07:41.028Z,0
2016-12-12T01:08:13.349Z,0
2016-12-12T01:08:45.679Z,0
2016-12-12T01:09:17.998Z,0
2016-12-12T01:09:50.319Z,0
2016-12-12T01:10:22.645Z,0
2016-12-12T01:10:54.969Z,0
2016-12-12T01:11:27.302Z,0
2016-12-12T01:11:59.644Z,0
2016-12-12T01:12:31.956Z,0
2016-12-12T01:13:04.282Z,0
2016-12-12T01:13:36.640Z,0
2016-12-12T01:14:08.977Z,0
2016-12-12T01:14:41.289Z,0
2016-12-12T01:15:13.593Z,0
2016-12-12T01:15:45.941Z,0
2016-12-12T01:16:18.273Z,0
2016-12-12T01:16:50.597Z,0
2016-12-12T01:17:22.933Z,0
2016-12-12T01:17:55.234Z,0
2016-12-12T01:18:27.553Z,0
2016-12-12T01:18:59.872Z,0
2016-12-12T01:19:32.196Z,0
2016-12-12T01:20:04.520Z,0
2016-12-12T01:20:36.837Z,0
2016-12-12T01:21:09.143Z,0
2016-12-12T01:21:41.467Z,0
2016-12-12T01:22:13.788Z,0
2016-12-12T01:22:46.104Z,0
2016-12-12T01:23:18.409Z,0
2016-12-12T01:23:50.743Z,0
2016-12-12T01:24:23.069Z,0
2016-12-12T01:24:55.385Z,0
2016-12-12T01:25:27.725Z,0
2016-12-12T01:26:00.042Z,0
2016-12-12T01:26:32.360Z,0
2016-12-12T01:27:04.684Z,0
2016-12-12T01:27:37.001Z,0
2016-12-12T01:28:09.321Z,0
2016-12-12T01:28:41.624Z,0
2016-12-12T01:29:13.955Z,0
2016-12-12T01:29:46.274Z,0
2016-12-12T01:30:18.594Z,0
2016-12-12T01:30:50.922Z,0
2016-12-12T01:31:23.249Z,0
2016-12-12T01:31:55.551Z,0
2016-12-12T01:32:27.860Z,0
2016-12-12T01:33:00.177Z,0
2016-12-12T01:33:32.512Z,0
2016-12-12T01:34:04.827Z,0
2016-12-12T01:34:37.147Z,0
2016-12-12T01:35:09.490Z,0
2016-12-12T01:35:41.809Z,0
2016-12-12T01:36:14.120Z,0
2016-12-12T01:36:46.445Z,0
2016-12-12T01:37:18.797Z,0
2016-12-12T01:37:51.097Z,0
2016-12-12T01:38:23.433Z,0
2016-12-12T01:38:55.764Z,0
2016-12-12T01:39:28.118Z,0
2016-12-12T01:40:00.451Z,0
2016-12-12T01:40:32.769Z,0
2016-12-12T01:41:05.131Z,0
2016-12-12T01:41:37.456Z,0
2016-12-12T01:42:09.781Z,0
2016-12-12T01:42:42.123Z,0
2016-12-12T01:43:14.449Z,0
2016-12-12T01:43:46.775Z,0
2016-12-12T01:44:19.094Z,0
2016-12-12T01:44:51.414Z,0
2016-12-12T01:45:23.735Z,0
2016-12-12T01:45:56.046Z,0
2016-12-12T01:46:28.371Z,0
2016-12-12T01:47:00.681Z,0
2016-12-12T01:47:32.998Z,0
2016-12-12T01:48:05.307Z,0
2016-12-12T01:48:37.627Z,0
2016-12-12T01:49:09.980Z,0
2016-12-12T01:49:42.302Z,0
2016-12-12T01:50:14.618Z,0
2016-12-12T01:50:46.931Z,0
2016-12-12T01:51:19.236Z,0
2016-12-12T01:51:51.547Z,0
2016-12-12T01:52:23.887Z,0
2016-12-12T01:52:56.206Z,0
2016-12-12T01:53:28.530Z,0
2016-12-12T01:54:00.826Z,0
2016-12-12T01:54:33.155Z,0
2016-12-12T01:55:05.490Z,0
2016-12-12T01:55:37.819Z,0
2016-12-12T01:56:10.125Z,0
2016-12-12T01:56:42.429Z,0
2016-12-12T01:57:14.763Z,0
2016-12-12T01:57:47.078Z,0
2016-12-12T01:58:19.387Z,0
2016-12-12T01:58:51.705Z,0
2016-12-12T01:59:24.015Z,0
2016-12-12T01:59:56.347Z,0
2016-12-12T02:00:28.658Z,0
2016-12-12T02:01:00.974Z,0
2016-12-12T02:01:33.295Z,0
2016-12-12T02:02:05.610Z,0
2016-12-12T02:02:37.936Z,0
2016-12-12T02:03:10.255Z,0
2016-12-12T02:03:42.570Z,0
2016-12-12T02:04:14.882Z,0
2016-12-12T02:04:47.192Z,0
2016-12-12T02:05:19.537Z,0
2016-12-12T02:05:51.856Z,0
2016-12-12T02:06:24.180Z,0
2016-12-12T02:06:56.498Z,0
2016-12-12T02:07:28.825Z,0
2016-12-12T02:08:01.143Z,0
2016-12-12T02:08:33.463Z,0
2016-12-12T02:09:05.799Z,0
2016-12-12T02:09:38.168Z,0
2016-12-12T02:10:10.489Z,0
2016-12-12T02:10:42.820Z,0
2016-12-12T02:11:15.177Z,0
2016-12-12T02:11:47.506Z,0
2016-12-12T02:12:19.839Z,0
2016-12-12T02:12:52.162Z,0
2016-12-12T02:13:24.473Z,0
2016-12-12T02:13:56.829Z,0
2016-12-12T02:14:29.158Z,0
2016-12-12T02:15:01.480Z,0
2016-12-12T02:15:33.804Z,0
2016-12-12T02:16:06.116Z,0
2016-12-12T02:16:38.439Z,0
2016-12-12T02:17:10.768Z,0
2016-12-12T02:17:43.089Z,0
2016-12-12T02:18:15.414Z,0
2016-12-12T02:18:47.713Z,0
2016-12-12T02:19:20.038Z,0
2016-12-12T02:19:52.368Z,0
2016-12-12T02:20:24.687Z,0
2016-12-12T02:20:57.004Z,0
2016-12-12T02:21:29.311Z,0
2016-12-12T02:22:01.641Z,0
2016-12-12T02:22:33.974Z,0
2016-12-12T02:23:06.304Z,0
2016-12-12T02:23:38.623Z,0
2016-12-12T02:24:10.937Z,0
2016-12-12T02:24:43.260Z,0
2016-12-12T02:25:15.584Z,0
2016-12-12T02:25:47.910Z,0
2016-12-12T02:26:20.231Z,0
2016-12-12T02:26:52.538Z,0
2016-12-12T02:27:24.850Z,0
2016-12-12T02:27:57.156Z,0
2016-12-12T02:28:29.482Z,0
2016-12-12T02:29:02.557Z,0
2016-12-12T02:29:34.884Z,0
2016-12-12T02:30:07.203Z,0
2016-12-12T02:30:39.519Z,0
2016-12-12T02:31:11.840Z,0
2016-12-12T02:31:44.174Z,0
2016-12-12T02:32:16.505Z,0
2016-12-12T02:32:48.852Z,0
2016-12-12T02:33:21.180Z,0
2016-12-12T02:33:53.505Z,0
2016-12-12T02:34:25.812Z,0
2016-12-12T02:34:58.134Z,0
2016-12-12T02:35:30.454Z,0
2016-12-12T02:36:02.778Z,0
2016-12-12T02:36:35.083Z,0
2016-12-12T02:37:07.394Z,0
2016-12-12T02:37:39.726Z,0
2016-12-12T02:38:12.045Z,0
2016-12-12T02:38:44.366Z,0
2016-12-12T02:39:16.714Z,0
2016-12-12T02:39:49.035Z,0
2016-12-12T02:40:21.351Z,0
2016-12-12T02:40:53.666Z,0
2016-12-12T02:41:25.985Z,0
2016-12-12T02:41:58.305Z,0
2016-12-12T02:42:30.636Z,0
2016-12-12T02:43:02.949Z,0
2016-12-12T02:43:35.265Z,0
2016-12-12T02:44:07.593Z,0
2016-12-12T02:44:39.929Z,0
2016-12-12T02:45:12.232Z,0
2016-12-12T02:45:44.548Z,0
2016-12-12T02:46:16.855Z,0
2016-12-12T02:46:49.177Z,0
2016-12-12T02:47:21.491Z,0
2016-12-12T02:47:53.816Z,0
2016-12-12T02:48:26.133Z,0
2016-12-12T02:48:58.442Z,0
2016-12-12T02:49:30.798Z,0
2016-12-12T02:50:03.099Z,0
2016-12-12T02:50:35.418Z,0
2016-12-12T02:51:07.739Z,0
2016-12-12T02:51:40.046Z,0
2016-12-12T02:52:12.394Z,0
2016-12-12T02:52:44.711Z,0
2016-12-12T02:53:17.046Z,0
2016-12-12T02:53:49.377Z,0
2016-12-12T02:54:21.689Z,0
2016-12-12T02:54:53.992Z,0
2016-12-12T02:55:26.307Z,0
2016-12-12T02:55:58.625Z,0
2016-12-12T02:56:30.947Z,0
2016-12-12T02:57:03.252Z,0
2016-12-12T02:57:35.557Z,0
2016-12-12T02:58:07.886Z,0
2016-12-12T02:58:40.216Z,0
2016-12-12T02:59:12.533Z,0
2016-12-12T02:59:44.849Z,0
2016-12-12T03:00:17.163Z,0
2016-12-12T03:00:49.488Z,0
2016-12-12T03:01:21.813Z,0
2016-12-12T03:01:54.134Z,0
2016-12-12T03:02:26.446Z,0
2016-12-12T03:02:58.807Z,0
2016-12-12T03:03:31.113Z,0
2016-12-12T03:04:03.443Z,0
2016-12-12T03:04:35.773Z,0
2016-12-12T03:05:08.093Z,0
2016-12-12T03:05:40.385Z,0
2016-12-12T03:06:12.700Z,0
2016-12-12T03:06:45.008Z,0
2016-12-12T03:07:17.358Z,0
2016-12-12T03:07:49.674Z,0
2016-12-12T03:08:21.997Z,0
2016-12-12T03:08:54.324Z,0
2016-12-12T03:09:26.641Z,0
2016-12-12T03:09:58.963Z,0
2016-12-12T03:10:31.284Z,0
2016-12-12T03:11:03.616Z,0
2016-12-12T03:11:35.932Z,0
2016-12-12T03:12:08.245Z,0
2016-12-12T03:12:40.577Z,0
2016-12-12T03:13:12.901Z,0
2016-12-12T03:13:45.216Z,0
2016-12-12T03:14:17.571Z,0
2016-12-12T03:14:49.904Z,0
2016-12-12T03:15:22.224Z,0
2016-12-12T03:15:54.552Z,0
2016-12-12T03:16:26.884Z,0
2016-12-12T03:16:59.217Z,0
2016-12-12T03:17:31.527Z,0
2016-12-12T03:18:03.859Z,0
2016-12-12T03:18:36.188Z,0
2016-12-12T03:19:08.534Z,0
2016-12-12T03:19:40.860Z,0
2016-12-12T03:20:13.190Z,0
2016-12-12T03:20:45.520Z,0
2016-12-12T03:21:17.836Z,0
2016-12-12T03:21:50.156Z,0
2016-12-12T03:22:22.478Z,0
2016-12-12T03:22:54.805Z,0
2016-12-12T03:23:27.127Z,0
2016-12-12T03:23:59.456Z,0
2016-12-12T03:24:31.780Z,0
2016-12-12T03:25:04.087Z,0
2016-12-12T03:25:36.411Z,0
2016-12-12T03:26:08.724Z,0
2016-12-12T03:26:41.044Z,0
2016-12-12T03:27:13.359Z,0
2016-12-12T03:27:45.673Z,0
2016-12-12T03:28:17.997Z,0
2016-12-12T03:28:50.314Z,0
2016-12-12T03:29:22.630Z,0
2016-12-12T03:29:54.947Z,0
2016-12-12T03:30:27.265Z,0
2016-12-12T03:30:59.582Z,0
2016-12-12T03:31:31.920Z,0
2016-12-12T03:32:04.235Z,0
2016-12-12T03:32:36.558Z,0
2016-12-12T03:33:08.868Z,0
2016-12-12T03:33:41.194Z,0
2016-12-12T03:34:13.505Z,0
2016-12-12T03:34:45.828Z,0
2016-12-12T03:35:18.161Z,0
2016-12-12T03:35:50.489Z,0
2016-12-12T03:36:22.808Z,0
2016-12-12T03:36:55.131Z,0
2016-12-12T03:37:27.456Z,0
2016-12-12T03:37:59.778Z,0
2016-12-12T03:38:32.112Z,0
2016-12-12T03:39:04.428Z,0
2016-12-12T03:39:36.747Z,0
2016-12-12T03:40:09.082Z,0
2016-12-12T03:40:41.398Z,0
2016-12-12T03:41:13.711Z,0
2016-12-12T03:41:46.042Z,0
2016-12-12T03:42:18.402Z,0
2016-12-12T03:42:50.728Z,0
2016-12-12T03:43:23.057Z,0
2016-12-12T03:43:55.376Z,0
2016-12-12T03:44:27.712Z,0
2016-12-12T03:45:00.004Z,0
2016-12-12T03:45:32.340Z,0
2016-12-12T03:46:04.654Z,0
2016-12-12T03:46:36.999Z,0
2016-12-12T03:47:09.310Z,0
2016-12-12T03:47:41.637Z,0
2016-12-12T03:48:13.943Z,0
2016-12-12T03:48:46.282Z,0
2016-12-12T03:49:18.612Z,0
2016-12-12T03:49:50.929Z,0
2016-12-12T03:50:23.247Z,0
2016-12-12T03:50:55.574Z,0
2016-12-12T03:51:27.899Z,0
2016-12-12T03:52:00.233Z,0
2016-12-12T03:52:32.552Z,0
2016-12-12T03:53:04.888Z,0
2016-12-12T03:53:37.208Z,0
2016-12-12T03:54:09.536Z,0
2016-12-12T03:54:41.842Z,0
2016-12-12T03:55:14.175Z,0
2016-12-12T03:55:46.496Z,0
2016-12-12T03:56:18.818Z,0
2016-12-12T03:56:51.240Z,0
2016-12-12T03:57:23.554Z,0
2016-12-12T03:57:55.884Z,0
2016-12-12T03:58:28.201Z,0
2016-12-12T03:59:00.509Z,0
2016-12-12T03:59:32.827Z,0
2016-12-12T04:00:05.154Z,0
2016-12-12T04:00:37.475Z,0
2016-12-12T04:01:09.799Z,0
2016-12-12T04:01:42.118Z,0
2016-12-12T04:02:14.445Z,0
2016-12-12T04:02:46.770Z,0
2016-12-12T04:03:19.077Z,0
2016-12-12T04:03:51.399Z,0
2016-12-12T04:04:23.727Z,0
2016-12-12T04:04:56.058Z,0
2016-12-12T04:05:28.374Z,0
2016-12-12T04:06:00.709Z,0
2016-12-12T04:06:33.043Z,0
2016-12-12T04:07:05.359Z,0
2016-12-12T04:07:37.689Z,0
2016-12-12T04:08:10.047Z,0
2016-12-12T04:08:42.356Z,0
2016-12-12T04:09:14.682Z,0
2016-12-12T04:09:47.001Z,0
2016-12-12T04:10:19.324Z,0
2016-12-12T04:10:51.671Z,0
2016-12-12T04:11:23.988Z,0
2016-12-12T04:11:56.336Z,0
2016-12-12T04:12:28.657Z,0
2016-12-12T04:13:00.991Z,0
2016-12-12T04:13:33.302Z,0
2016-12-12T04:14:05.657Z,0
2016-12-12T04:14:37.962Z,0
2016-12-12T04:15:10.281Z,0
2016-12-12T04:15:42.594Z,0
2016-12-12T04:16:14.904Z,0
2016-12-12T04:16:47.231Z,0
2016-12-12T04:17:19.565Z,0
2016-12-12T04:17:51.884Z,0
2016-12-12T04:18:24.200Z,0
2016-12-12T04:18:56.516Z,0
2016-12-12T04:19:28.832Z,0
2016-12-12T04:20:01.151Z,0
2016-12-12T04:20:33.485Z,0
2016-12-12T04:21:05.795Z,0
2016-12-12T04:21:38.118Z,0
2016-12-12T04:22:10.443Z,0
2016-12-12T04:22:42.793Z,0
2016-12-12T04:23:15.103Z,0
2016-12-12T04:23:47.421Z,0
2016-12-12T04:24:19.764Z,0
2016-12-12T04:24:52.097Z,0
2016-12-12T04:25:24.427Z,0
2016-12-12T04:25:56.763Z,0
2016-12-12T04:26:29.095Z,0
2016-12-12T04:27:01.417Z,0
2016-12-12T04:27:33.746Z,0
2016-12-12T04:28:06.052Z,0
2016-12-12T04:28:38.361Z,0
2016-12-12T04:29:10.689Z,0
2016-12-12T04:29:43.009Z,0
2016-12-12T04:30:15.336Z,0
2016-12-12T04:30:47.671Z,0
2016-12-12T04:31:20.004Z,0
2016-12-12T04:31:52.339Z,0
2016-12-12T04:32:24.690Z,0
2016-12-12T04:32:57.021Z,0
2016-12-12T04:33:29.341Z,0
2016-12-12T04:34:01.670Z,0
2016-12-12T04:34:33.993Z,0
2016-12-12T04:35:06.308Z,0
2016-12-12T04:35:38.635Z,0
2016-12-12T04:36:10.962Z,0
2016-12-12T04:36:43.283Z,0
2016-12-12T04:37:15.605Z,0
2016-12-12T04:37:47.902Z,0
2016-12-12T04:38:20.231Z,0
2016-12-12T04:38:52.550Z,0
2016-12-12T04:39:24.879Z,0
2016-12-12T04:39:57.203Z,0
2016-12-12T04:40:29.523Z,0
2016-12-12T04:41:01.833Z,0
2016-12-12T04:41:34.151Z,0
2016-12-12T04:42:06.472Z,0
2016-12-12T04:42:38.791Z,0
2016-12-12T04:43:11.119Z,0
2016-12-12T04:43:43.425Z,0
2016-12-12T04:44:15.745Z,0
2016-12-12T04:44:48.069Z,0
2016-12-12T04:45:20.399Z,0
2016-12-12T04:45:52.723Z,0
2016-12-12T04:46:25.044Z,0
2016-12-12T04:46:57.359Z,0
2016-12-12T04:47:29.673Z,0
2016-12-12T04:48:02.000Z,0
2016-12-12T04:48:34.344Z,0
2016-12-12T04:49:06.665Z,0
2016-12-12T04:49:38.977Z,0
2016-12-12T04:50:11.300Z,0
2016-12-12T04:50:43.623Z,0
2016-12-12T04:51:15.965Z,0
2016-12-12T04:51:48.288Z,0
2016-12-12T04:52:20.604Z,0
2016-12-12T04:52:52.921Z,0
2016-12-12T04:53:25.235Z,0
2016-12-12T04:53:57.591Z,0
2016-12-12T04:54:29.900Z,0
2016-12-12T04:55:02.225Z,0
2016-12-12T04:55:34.540Z,0
2016-12-12T04:56:06.846Z,0
2016-12-12T04:56:39.169Z,0
2016-12-12T04:57:11.490Z,0
2016-12-12T04:57:43.813Z,0
2016-12-12T04:58:16.119Z,0
2016-12-12T04:58:48.433Z,0
2016-12-12T04:59:20.758Z,0
2016-12-12T04:59:53.080Z,0
2016-12-12T05:00:25.413Z,0
2016-12-12T05:00:57.733Z,0
2016-12-12T05:01:30.052Z,0
2016-12-12T05:02:02.374Z,0
2016-12-12T05:02:34.704Z,0
2016-12-12T05:03:07.021Z,0
2016-12-12T05:03:39.327Z,0
2016-12-12T05:04:11.639Z,0
2016-12-12T05:04:43.954Z,0
2016-12-12T05:05:16.270Z,0
2016-12-12T05:05:48.595Z,0
2016-12-12T05:06:20.922Z,0
2016-12-12T05:06:53.236Z,0
2016-12-12T05:07:25.564Z,0
2016-12-12T05:07:57.954Z,0
2016-12-12T05:08:30.264Z,0
2016-12-12T05:09:02.570Z,0
2016-12-12T05:09:34.915Z,0
2016-12-12T05:10:07.238Z,0
2016-12-12T05:10:39.564Z,0
2016-12-12T05:11:11.889Z,0
2016-12-12T05:11:44.209Z,0
2016-12-12T05:12:16.534Z,0
2016-12-12T05:12:48.851Z,0
2016-12-12T05:13:21.171Z,0
2016-12-12T05:13:53.489Z,0
2016-12-12T05:14:25.804Z,0
2016-12-12T05:14:58.129Z,0
2016-12-12T05:15:30.459Z,0
2016-12-12T05:16:02.788Z,0
2016-12-12T05:16:35.108Z,0
2016-12-12T05:17:07.437Z,0
2016-12-12T05:17:39.746Z,0
2016-12-12T05:18:12.060Z,0
2016-12-12T05:18:44.379Z,0
2016-12-12T05:19:16.735Z,0
2016-12-12T05:19:49.065Z,0
2016-12-12T05:20:21.393Z,0
2016-12-12T05:20:53.716Z,0
2016-12-12T05:21:26.046Z,0
2016-12-12T05:21:58.367Z,0
2016-12-12T05:22:30.690Z,0
2016-12-12T05:23:03.004Z,0
2016-12-12T05:23:35.320Z,0
2016-12-12T05:24:07.651Z,0
2016-12-12T05:24:39.976Z,0
2016-12-12T05:25:12.302Z,0
2016-12-12T05:25:44.625Z,0
2016-12-12T05:26:16.958Z,0
2016-12-12T05:26:49.283Z,0
2016-12-12T05:27:21.603Z,0
2016-12-12T05:27:53.924Z,0
2016-12-12T05:28:26.244Z,0
2016-12-12T05:28:58.566Z,0
2016-12-12T05:29:30.903Z,0
2016-12-12T05:30:03.241Z,0
2016-12-12T05:30:35.563Z,0
2016-12-12T05:31:07.891Z,0
2016-12-12T05:31:40.724Z,0
2016-12-12T05:32:13.035Z,0
2016-12-12T05:32:45.377Z,0
2016-12-12T05:33:17.698Z,0
2016-12-12T05:33:50.013Z,0
2016-12-12T05:34:22.319Z,0
2016-12-12T05:34:54.628Z,0
2016-12-12T05:35:26.954Z,0
2016-12-12T05:35:59.271Z,0
2016-12-12T05:36:31.572Z,0
2016-12-12T05:37:03.902Z,0
2016-12-12T05:37:36.246Z,0
2016-12-12T05:38:08.569Z,0
2016-12-12T05:38:40.881Z,0
2016-12-12T05:39:13.191Z,0
2016-12-12T05:39:45.521Z,0
2016-12-12T05:40:17.843Z,0
2016-12-12T05:40:50.162Z,0
2016-12-12T05:41:22.476Z,0
2016-12-12T05:41:54.783Z,0
2016-12-12T05:42:27.113Z,0
2016-12-12T05:42:59.427Z,0
2016-12-12T05:43:31.749Z,0
2016-12-12T05:44:04.062Z,0
2016-12-12T05:44:36.383Z,0
2016-12-12T05:45:08.712Z,0
2016-12-12T05:45:41.041Z,0
2016-12-12T05:46:13.365Z,0
2016-12-12T05:46:45.684Z,0
2016-12-12T05:47:17.994Z,0
2016-12-12T05:47:50.312Z,0
2016-12-12T05:48:22.655Z,0
2016-12-12T05:48:54.990Z,0
2016-12-12T05:49:27.321Z,0
2016-12-12T05:49:59.628Z,0
2016-12-12T05:50:31.951Z,0
2016-12-12T05:51:04.272Z,0
2016-12-12T05:51:36.590Z,0
2016-12-12T05:52:08.912Z,0
2016-12-12T05:52:41.230Z,0
2016-12-12T05:53:13.548Z,0
2016-12-12T05:53:45.890Z,0
2016-12-12T05:54:18.203Z,0
2016-12-12T05:54:50.533Z,0
2016-12-12T05:55:22.853Z,0
2016-12-12T05:55:55.159Z,0
2016-12-12T05:56:27.487Z,0
2016-12-12T05:56:59.801Z,0
2016-12-12T05:57:32.120Z,0
2016-12-12T05:58:04.425Z,0
2016-12-12T05:58:36.735Z,0
2016-12-12T05:59:09.056Z,0
2016-12-12T05:59:41.377Z,0
2016-12-12T06:00:13.707Z,0
2016-12-12T06:00:46.031Z,0
2016-12-12T06:01:18.393Z,0
2016-12-12T06:01:50.724Z,0
2016-12-12T06:02:23.043Z,0
2016-12-12T06:02:55.403Z,0
2016-12-12T06:03:27.737Z,0
2016-12-12T06:04:00.063Z,0
2016-12-12T06:04:32.377Z,0
2016-12-12T06:05:04.702Z,0
2016-12-12T06:05:37.033Z,0
2016-12-12T06:06:09.353Z,0
2016-12-12T06:06:41.660Z,0
2016-12-12T06:07:13.987Z,0
2016-12-12T06:07:46.319Z,0
2016-12-12T06:08:18.632Z,0
2016-12-12T06:08:50.956Z,0
2016-12-12T06:09:23.275Z,0
2016-12-12T06:09:55.606Z,0
2016-12-12T06:10:27.907Z,0
2016-12-12T06:11:00.227Z,0
2016-12-12T06:11:32.561Z,0
2016-12-12T06:12:04.883Z,0
2016-12-12T06:12:37.236Z,0
2016-12-12T06:13:09.555Z,0
2016-12-12T06:13:41.854Z,0
2016-12-12T06:14:14.166Z,0
2016-12-12T06:14:46.482Z,0
2016-12-12T06:15:18.817Z,0
2016-12-12T06:15:51.152Z,0
2016-12-12T06:16:23.507Z,0
2016-12-12T06:16:56.603Z,0
2016-12-12T06:17:28.939Z,0
2016-12-12T06:18:01.268Z,0
2016-12-12T06:18:33.603Z,0
2016-12-12T06:19:05.911Z,0
2016-12-12T06:19:38.243Z,0
2016-12-12T06:20:10.570Z,0
2016-12-12T06:20:42.904Z,0
2016-12-12T06:21:15.216Z,0
2016-12-12T06:21:47.559Z,0
2016-12-12T06:22:19.861Z,0
2016-12-12T06:22:52.160Z,0
2016-12-12T06:23:24.484Z,0
2016-12-12T06:23:56.848Z,0
2016-12-12T06:24:29.173Z,0
2016-12-12T06:25:01.492Z,0
2016-12-12T06:25:33.820Z,0
2016-12-12T06:26:06.139Z,0
2016-12-12T06:26:38.488Z,0
2016-12-12T06:27:10.808Z,0
2016-12-12T06:29:02.376Z,0
2016-12-12T06:29:34.698Z,0
2016-12-12T06:30:07.026Z,0
2016-12-12T06:30:39.331Z,0
2016-12-12T06:31:11.652Z,0
2016-12-12T06:31:43.982Z,0
2016-12-12T06:32:16.299Z,0
2016-12-12T06:32:48.632Z,0
2016-12-12T06:33:20.939Z,0
2016-12-12T06:33:53.269Z,0
2016-12-12T06:34:25.639Z,0
2016-12-12T06:34:57.970Z,0
2016-12-12T06:35:30.306Z,0
2016-12-12T06:36:02.657Z,0
2016-12-12T06:36:34.986Z,0
2016-12-12T06:37:07.347Z,0
2016-12-12T06:37:40.207Z,0
2016-12-12T06:38:14.273Z,0
2016-12-12T06:38:47.673Z,0
2016-12-12T06:39:20.687Z,0
2016-12-12T06:39:53.006Z,0
2016-12-12T06:40:25.330Z,0
2016-12-12T06:40:57.651Z,0
2016-12-12T06:41:29.971Z,0
2016-12-12T06:42:02.305Z,0
2016-12-12T06:42:34.628Z,0
2016-12-12T06:43:07.619Z,0
2016-12-12T06:43:40.118Z,0
2016-12-12T06:44:12.470Z,0
2016-12-12T06:44:44.789Z,0
2016-12-12T06:45:18.260Z,0
2016-12-12T06:45:50.957Z,0
2016-12-12T06:46:23.558Z,0
2016-12-12T06:46:56.031Z,0
2016-12-12T06:47:29.486Z,0
2016-12-12T06:48:01.817Z,0
2016-12-12T06:48:38.103Z,0
2016-12-12T06:49:10.892Z,0
2016-12-12T06:49:43.193Z,0
2016-12-12T06:50:15.535Z,0
2016-12-12T06:50:47.862Z,0
2016-12-12T06:51:20.183Z,0
2016-12-12T06:51:52.512Z,0
2016-12-12T06:52:24.828Z,0
2016-12-12T06:52:57.128Z,0
2016-12-12T06:53:29.463Z,0
2016-12-12T06:54:01.776Z,0
2016-12-12T06:54:34.089Z,0
2016-12-12T06:55:06.460Z,4
2016-12-12T06:55:38.773Z,4
2016-12-12T06:56:11.096Z,4
2016-12-12T06:56:43.419Z,4
2016-12-12T06:57:16.688Z,0
2016-12-12T06:57:49.000Z,0
2016-12-12T06:58:21.319Z,4
2016-12-12T06:58:53.629Z,4
2016-12-12T06:59:25.948Z,4
2016-12-12T06:59:58.289Z,4
2016-12-12T07:00:30.614Z,4
2016-12-12T07:01:04.063Z,4
2016-12-12T07:01:37.279Z,4
2016-12-12T07:02:09.803Z,4
2016-12-12T07:02:42.382Z,4
2016-12-12T07:03:15.164Z,4
2016-12-12T07:03:47.708Z,8
2016-12-12T07:04:20.774Z,8
2016-12-12T07:04:55.302Z,8
2016-12-12T07:05:28.688Z,8
2016-12-12T07:06:01.231Z,12
2016-12-12T07:06:34.217Z,8
2016-12-12T07:07:06.557Z,12
2016-12-12T07:07:39.059Z,8
2016-12-12T07:08:11.553Z,12
2016-12-12T07:08:46.273Z,12
2016-12-12T07:09:19.105Z,12
2016-12-12T07:09:51.499Z,16
2016-12-12T07:10:23.838Z,16
2016-12-12T07:10:56.218Z,16
2016-12-12T07:11:29.329Z,16
2016-12-12T07:12:03.231Z,20
2016-12-12T07:12:35.592Z,20
2016-12-12T07:13:07.902Z,20
2016-12-12T07:13:40.595Z,20
2016-12-12T07:14:12.961Z,24
2016-12-12T07:14:46.732Z,24
2016-12-12T07:15:19.058Z,24
2016-12-12T07:15:51.367Z,28
2016-12-12T07:16:23.680Z,28
2016-12-12T07:16:55.997Z,32
2016-12-12T07:17:29.793Z,32
2016-12-12T07:18:02.161Z,36
2016-12-12T07:18:35.467Z,32
2016-12-12T07:19:14.794Z,36
2016-12-12T07:20:00.290Z,32
2016-12-12T07:20:37.899Z,28
2016-12-12T07:21:13.284Z,24
2016-12-12T07:21:47.310Z,28
2016-12-12T07:22:27.244Z,24
2016-12-12T07:23:00.741Z,28
2016-12-12T07:23:35.354Z,28
2016-12-12T07:24:07.696Z,32
2016-12-12T07:24:41.782Z,32
2016-12-12T07:25:19.442Z,32
2016-12-12T07:25:55.193Z,40
2016-12-12T07:26:36.798Z,40
2016-12-12T07:27:15.816Z,44
2016-12-12T07:27:48.213Z,44
2016-12-12T07:28:22.371Z,44
2016-12-12T07:28:56.052Z,48
2016-12-12T07:29:31.710Z,48
2016-12-12T07:30:27.789Z,52
2016-12-12T07:31:06.429Z,48
2016-12-12T07:31:40.367Z,52
2016-12-12T07:32:12.774Z,48
2016-12-12T07:32:48.308Z,52
2016-12-12T07:33:21.721Z,56
2016-12-12T07:33:54.755Z,56
2016-12-12T07:34:28.387Z,52
2016-12-12T07:35:03.263Z,52
2016-12-12T07:35:37.301Z,56
2016-12-12T07:36:11.215Z,56
2016-12-12T07:36:43.956Z,56
2016-12-12T07:37:16.877Z,60
2016-12-12T07:37:49.197Z,64
2016-12-12T07:38:23.290Z,60
2016-12-12T07:39:03.280Z,64
2016-12-12T07:39:35.596Z,68
2016-12-12T07:40:09.296Z,72
2016-12-12T07:40:42.151Z,72
2016-12-12T07:41:15.292Z,76
2016-12-12T07:41:47.602Z,84
2016-12-12T07:43:40.168Z,100
2016-12-12T07:44:12.662Z,108
2016-12-12T07:44:44.955Z,112
2016-12-12T07:45:17.314Z,116
2016-12-12T07:45:49.630Z,128
2016-12-12T07:46:23.244Z,132
2016-12-12T07:46:55.630Z,136
2016-12-12T07:47:28.739Z,144
2016-12-12T07:48:02.255Z,148
2016-12-12T07:48:35.853Z,156
2016-12-12T07:49:08.164Z,164
2016-12-12T07:49:40.482Z,176
2016-12-12T07:50:12.809Z,184
2016-12-12T07:50:45.151Z,196
2016-12-12T07:51:17.466Z,204
2016-12-12T07:51:49.785Z,208
2016-12-12T07:52:22.101Z,220
2016-12-12T07:52:54.432Z,220
2016-12-12T07:53:26.756Z,220
2016-12-12T07:53:59.102Z,224
2016-12-12T07:54:31.421Z,224
2016-12-12T07:55:03.752Z,224
2016-12-12T07:55:36.054Z,228
2016-12-12T07:56:08.378Z,236
2016-12-12T07:56:40.853Z,244
2016-12-12T07:57:13.242Z,252
2016-12-12T07:57:45.565Z,260
2016-12-12T07:58:17.900Z,268
2016-12-12T07:58:50.264Z,280
2016-12-12T07:59:22.597Z,296
2016-12-12T07:59:54.901Z,304
2016-12-12T08:00:27.202Z,312
2016-12-12T08:00:59.526Z,320